sensor_id;sensor_type;location;lat;lon;timestamp;pressure;altitude;pressure_sealevel;temperature;humidity
24962;BME280;12992;50.884;13.668;2023-04-19T00:00:59;98212.69;;;8.39;100.00
24962;BME280;12992;50.884;13.668;2023-04-19T00:03:26;98211.84;;;8.38;100.00
24962;BME280;12992;50.884;13.668;2023-04-19T00:05:52;98211.81;;;8.45;100.00
24962;BME280;12992;50.884;13.668;2023-04-19T00:08:18;98208.22;;;8.51;100.00
24962;BME280;12992;50.884;13.668;2023-04-19T00:10:43;98210.06;;;8.57;100.00
24962;BME280;12992;50.884;13.668;2023-04-19T00:13:09;98210.06;;;8.57;100.00
24962;BME280;12992;50.884;13.668;2023-04-19T00:15:34;98206.28;;;8.58;100.00
24962;BME280;12992;50.884;13.668;2023-04-19T00:18:00;98199.66;;;8.47;100.00
24962;BME280;12992;50.884;13.668;2023-04-19T00:20:25;98192.84;;;8.38;100.00
24962;BME280;12992;50.884;13.668;2023-04-19T00:22:51;98192.19;;;8.43;100.00
24962;BME280;12992;50.884;13.668;2023-04-19T00:25:16;98197.38;;;8.51;100.00
24962;BME280;12992;50.884;13.668;2023-04-19T00:27:41;98186.59;;;8.38;100.00
24962;BME280;12992;50.884;13.668;2023-04-19T00:30:07;98183.88;;;8.38;100.00
24962;BME280;12992;50.884;13.668;2023-04-19T00:32:32;98180.09;;;8.39;100.00
24962;BME280;12992;50.884;13.668;2023-04-19T00:34:58;98186.31;;;8.46;100.00
24962;BME280;12992;50.884;13.668;2023-04-19T00:37:23;98182.63;;;8.34;100.00
24962;BME280;12992;50.884;13.668;2023-04-19T00:39:48;98163.97;;;8.12;100.00
24962;BME280;12992;50.884;13.668;2023-04-19T00:42:14;98174.38;;;8.22;100.00
24962;BME280;12992;50.884;13.668;2023-04-19T00:44:39;98155.69;;;8.07;100.00
24962;BME280;12992;50.884;13.668;2023-04-19T00:47:05;98158.66;;;7.99;100.00
24962;BME280;12992;50.884;13.668;2023-04-19T00:49:30;98162.31;;;8.11;100.00
24962;BME280;12992;50.884;13.668;2023-04-19T00:51:56;98164.88;;;8.06;100.00
24962;BME280;12992;50.884;13.668;2023-04-19T00:54:22;98154.78;;;7.88;100.00
24962;BME280;12992;50.884;13.668;2023-04-19T00:56:48;98152.06;;;7.88;100.00
24962;BME280;12992;50.884;13.668;2023-04-19T00:59:15;98161.03;;;7.89;100.00
24962;BME280;12992;50.884;13.668;2023-04-19T01:01:41;98149.03;;;7.72;100.00
24962;BME280;12992;50.884;13.668;2023-04-19T01:04:07;98139.91;;;7.59;100.00
24962;BME280;12992;50.884;13.668;2023-04-19T01:06:33;98135.97;;;7.55;100.00
24962;BME280;12992;50.884;13.668;2023-04-19T01:08:59;98130.75;;;7.60;100.00
24962;BME280;12992;50.884;13.668;2023-04-19T01:11:26;98139.88;;;7.66;100.00
24962;BME280;12992;50.884;13.668;2023-04-19T01:13:51;98125.97;;;7.56;100.00
24962;BME280;12992;50.884;13.668;2023-04-19T01:16:17;98133.00;;;7.63;100.00
24962;BME280;12992;50.884;13.668;2023-04-19T01:18:43;98130.09;;;7.65;100.00
24962;BME280;12992;50.884;13.668;2023-04-19T01:21:09;98132.50;;;7.80;100.00
24962;BME280;12992;50.884;13.668;2023-04-19T01:23:35;98132.06;;;7.83;100.00
24962;BME280;12992;50.884;13.668;2023-04-19T01:26:01;98131.22;;;7.82;100.00
24962;BME280;12992;50.884;13.668;2023-04-19T01:28:27;98122.91;;;7.77;100.00
24962;BME280;12992;50.884;13.668;2023-04-19T01:30:52;98116.31;;;7.66;100.00
24962;BME280;12992;50.884;13.668;2023-04-19T01:33:22;98113.59;;;7.66;100.00
24962;BME280;12992;50.884;13.668;2023-04-19T01:35:48;98114.78;;;7.77;100.00
24962;BME280;12992;50.884;13.668;2023-04-19T01:38:14;98104.63;;;7.66;100.00
24962;BME280;12992;50.884;13.668;2023-04-19T01:40:40;98103.56;;;7.67;100.00
24962;BME280;12992;50.884;13.668;2023-04-19T01:43:06;98110.63;;;7.75;100.00
24962;BME280;12992;50.884;13.668;2023-04-19T01:45:32;98112.97;;;7.71;100.00
24962;BME280;12992;50.884;13.668;2023-04-19T01:47:59;98106.97;;;7.62;100.00
24962;BME280;12992;50.884;13.668;2023-04-19T01:50:26;98108.16;;;7.66;100.00
24962;BME280;12992;50.884;13.668;2023-04-19T01:52:52;98118.97;;;7.73;100.00
24962;BME280;12992;50.884;13.668;2023-04-19T01:55:17;98103.19;;;7.63;100.00
24962;BME280;12992;50.884;13.668;2023-04-19T01:57:43;98105.91;;;7.63;100.00
24962;BME280;12992;50.884;13.668;2023-04-19T02:00:10;98114.84;;;7.71;100.00
24962;BME280;12992;50.884;13.668;2023-04-19T02:02:41;98089.72;;;7.50;100.00
24962;BME280;12992;50.884;13.668;2023-04-19T02:05:07;98101.94;;;7.59;100.00
24962;BME280;12992;50.884;13.668;2023-04-19T02:07:33;98088.09;;;7.43;100.00
24962;BME280;12992;50.884;13.668;2023-04-19T02:09:58;98098.88;;;7.49;100.00
24962;BME280;12992;50.884;13.668;2023-04-19T02:12:26;98087.69;;;7.39;100.00
24962;BME280;12992;50.884;13.668;2023-04-19T02:14:53;98083.31;;;7.38;100.00
24962;BME280;12992;50.884;13.668;2023-04-19T02:17:28;98086.00;;;7.45;100.00
24962;BME280;12992;50.884;13.668;2023-04-19T02:19:55;98075.63;;;7.35;100.00
24962;BME280;12992;50.884;13.668;2023-04-19T02:22:20;98083.50;;;7.43;100.00
24962;BME280;12992;50.884;13.668;2023-04-19T02:24:48;98093.06;;;7.52;100.00
24962;BME280;12992;50.884;13.668;2023-04-19T02:27:14;98083.91;;;7.47;100.00
24962;BME280;12992;50.884;13.668;2023-04-19T02:29:39;98082.22;;;7.52;100.00
24962;BME280;12992;50.884;13.668;2023-04-19T02:32:05;98077.19;;;7.56;100.00
24962;BME280;12992;50.884;13.668;2023-04-19T02:34:34;98057.31;;;7.30;100.00
24962;BME280;12992;50.884;13.668;2023-04-19T02:37:00;98077.69;;;7.39;100.00
24962;BME280;12992;50.884;13.668;2023-04-19T02:39:27;98064.00;;;7.28;100.00
24962;BME280;12992;50.884;13.668;2023-04-19T02:41:52;98066.88;;;7.33;100.00
24962;BME280;12992;50.884;13.668;2023-04-19T02:44:17;98062.34;;;7.27;100.00
24962;BME280;12992;50.884;13.668;2023-04-19T02:46:50;98060.63;;;7.32;100.00
24962;BME280;12992;50.884;13.668;2023-04-19T02:49:16;98058.38;;;7.23;100.00
24962;BME280;12992;50.884;13.668;2023-04-19T02:51:42;98063.13;;;7.34;100.00
24962;BME280;12992;50.884;13.668;2023-04-19T02:54:08;98043.22;;;7.15;100.00
24962;BME280;12992;50.884;13.668;2023-04-19T02:56:34;98049.28;;;7.10;100.00
24962;BME280;12992;50.884;13.668;2023-04-19T02:59:01;98050.09;;;7.18;100.00
24962;BME280;12992;50.884;13.668;2023-04-19T03:01:26;98049.91;;;7.13;100.00
24962;BME280;12992;50.884;13.668;2023-04-19T03:03:52;98040.34;;;7.03;100.00
24962;BME280;12992;50.884;13.668;2023-04-19T03:06:17;98042.84;;;7.05;100.00
24962;BME280;12992;50.884;13.668;2023-04-19T03:08:43;98047.63;;;7.09;100.00
24962;BME280;12992;50.884;13.668;2023-04-19T03:11:10;98033.34;;;6.89;100.00
24962;BME280;12992;50.884;13.668;2023-04-19T03:13:35;98047.09;;;6.88;100.00
24962;BME280;12992;50.884;13.668;2023-04-19T03:16:02;98049.56;;;6.96;100.00
24962;BME280;12992;50.884;13.668;2023-04-19T03:18:30;98044.13;;;6.96;100.00
24962;BME280;12992;50.884;13.668;2023-04-19T03:20:56;98030.47;;;6.77;100.00
24962;BME280;12992;50.884;13.668;2023-04-19T03:23:22;98027.75;;;6.77;100.00
24962;BME280;12992;50.884;13.668;2023-04-19T03:25:48;98032.53;;;6.82;100.00
24962;BME280;12992;50.884;13.668;2023-04-19T03:28:36;98031.72;;;6.75;100.00
24962;BME280;12992;50.884;13.668;2023-04-19T03:31:14;98034.59;;;6.80;100.00
24962;BME280;12992;50.884;13.668;2023-04-19T03:33:40;98027.13;;;6.82;100.00
24962;BME280;12992;50.884;13.668;2023-04-19T03:36:07;98019.41;;;6.79;100.00
24962;BME280;12992;50.884;13.668;2023-04-19T03:38:33;98015.47;;;6.81;100.00
24962;BME280;12992;50.884;13.668;2023-04-19T03:41:00;98005.72;;;6.74;100.00
24962;BME280;12992;50.884;13.668;2023-04-19T03:43:29;98011.97;;;6.74;100.00
24962;BME280;12992;50.884;13.668;2023-04-19T03:45:54;98013.38;;;6.84;100.00
24962;BME280;12992;50.884;13.668;2023-04-19T03:48:21;98008.78;;;6.91;100.00
24962;BME280;12992;50.884;13.668;2023-04-19T03:50:46;97997.56;;;6.80;100.00
24962;BME280;12992;50.884;13.668;2023-04-19T03:53:14;97995.69;;;6.81;100.00
24962;BME280;12992;50.884;13.668;2023-04-19T03:55:40;97992.78;;;6.76;100.00
24962;BME280;12992;50.884;13.668;2023-04-19T03:58:05;97971.38;;;6.68;100.00
24962;BME280;12992;50.884;13.668;2023-04-19T04:00:38;97968.34;;;6.44;100.00
24962;BME280;12992;50.884;13.668;2023-04-19T04:03:04;97985.38;;;6.51;100.00
24962;BME280;12992;50.884;13.668;2023-04-19T04:05:29;97976.03;;;6.47;100.00
24962;BME280;12992;50.884;13.668;2023-04-19T04:07:54;97970.63;;;6.47;100.00
24962;BME280;12992;50.884;13.668;2023-04-19T04:10:22;97975.63;;;6.44;100.00
24962;BME280;12992;50.884;13.668;2023-04-19T04:12:48;97983.56;;;6.39;100.00
24962;BME280;12992;50.884;13.668;2023-04-19T04:15:19;97988.97;;;6.45;100.00
24962;BME280;12992;50.884;13.668;2023-04-19T04:17:50;97978.53;;;6.49;100.00
24962;BME280;12992;50.884;13.668;2023-04-19T04:20:18;97983.72;;;6.50;100.00
24962;BME280;12992;50.884;13.668;2023-04-19T04:22:44;97992.28;;;6.47;100.00
24962;BME280;12992;50.884;13.668;2023-04-19T04:25:15;97998.53;;;6.41;100.00
24962;BME280;12992;50.884;13.668;2023-04-19T04:27:43;97992.28;;;6.47;100.00
24962;BME280;12992;50.884;13.668;2023-04-19T04:30:13;98002.22;;;6.53;100.00
24962;BME280;12992;50.884;13.668;2023-04-19T04:32:39;97966.13;;;6.15;100.00
24962;BME280;12992;50.884;13.668;2023-04-19T04:35:06;97974.25;;;6.15;100.00
24962;BME280;12992;50.884;13.668;2023-04-19T04:37:41;97987.78;;;6.21;100.00
24962;BME280;12992;50.884;13.668;2023-04-19T04:40:06;97987.75;;;6.28;100.00
24962;BME280;12992;50.884;13.668;2023-04-19T04:42:33;97960.78;;;6.02;100.00
24962;BME280;12992;50.884;13.668;2023-04-19T04:44:59;97976.16;;;5.94;100.00
24962;BME280;12992;50.884;13.668;2023-04-19T04:47:30;97983.63;;;5.99;100.00
24962;BME280;12992;50.884;13.668;2023-04-19T04:49:57;97971.16;;;5.85;100.00
24962;BME280;12992;50.884;13.668;2023-04-19T04:52:23;97974.47;;;5.80;100.00
24962;BME280;12992;50.884;13.668;2023-04-19T04:54:57;97972.22;;;5.77;100.00
24962;BME280;12992;50.884;13.668;2023-04-19T04:57:28;97964.09;;;5.64;100.00
24962;BME280;12992;50.884;13.668;2023-04-19T04:59:53;97965.75;;;5.65;100.00
24962;BME280;12992;50.884;13.668;2023-04-19T05:02:23;97961.59;;;5.69;100.00
24962;BME280;12992;50.884;13.668;2023-04-19T05:04:50;97956.63;;;5.66;100.00
24962;BME280;12992;50.884;13.668;2023-04-19T05:07:15;97952.06;;;5.60;100.00
24962;BME280;12992;50.884;13.668;2023-04-19T05:09:41;97963.69;;;5.60;100.00
24962;BME280;12992;50.884;13.668;2023-04-19T05:12:06;97961.81;;;5.54;100.00
24962;BME280;12992;50.884;13.668;2023-04-19T05:14:32;97963.91;;;5.65;100.00
24962;BME280;12992;50.884;13.668;2023-04-19T05:16:57;97955.19;;;5.57;100.00
24962;BME280;12992;50.884;13.668;2023-04-19T05:19:23;97949.97;;;5.42;100.00
24962;BME280;12992;50.884;13.668;2023-04-19T05:21:54;97948.72;;;5.45;100.00
24962;BME280;12992;50.884;13.668;2023-04-19T05:24:20;97949.97;;;5.49;100.00
24962;BME280;12992;50.884;13.668;2023-04-19T05:26:45;97948.94;;;5.50;100.00
24962;BME280;12992;50.884;13.668;2023-04-19T05:29:10;97945.81;;;5.39;100.00
24962;BME280;12992;50.884;13.668;2023-04-19T05:31:44;97939.56;;;5.46;100.00
24962;BME280;12992;50.884;13.668;2023-04-19T05:34:16;97931.06;;;5.35;100.00
24962;BME280;12992;50.884;13.668;2023-04-19T05:36:42;97938.34;;;5.48;100.00
24962;BME280;12992;50.884;13.668;2023-04-19T05:39:07;97943.50;;;5.56;100.00
24962;BME280;12992;50.884;13.668;2023-04-19T05:41:34;97944.78;;;5.54;100.00
24962;BME280;12992;50.884;13.668;2023-04-19T05:43:59;97956.63;;;5.66;100.00
24962;BME280;12992;50.884;13.668;2023-04-19T05:46:25;97950.19;;;5.54;100.00
24962;BME280;12992;50.884;13.668;2023-04-19T05:48:50;97952.25;;;5.58;100.00
24962;BME280;12992;50.884;13.668;2023-04-19T05:51:39;97959.50;;;5.64;100.00
24962;BME280;12992;50.884;13.668;2023-04-19T05:54:08;97940.41;;;5.53;100.00
24962;BME280;12992;50.884;13.668;2023-04-19T05:56:39;97932.72;;;5.36;100.00
24962;BME280;12992;50.884;13.668;2023-04-19T05:59:05;97930.22;;;5.28;100.00
24962;BME280;12992;50.884;13.668;2023-04-19T06:01:31;97953.94;;;5.39;100.00
24962;BME280;12992;50.884;13.668;2023-04-19T06:03:56;97942.50;;;5.51;100.00
24962;BME280;12992;50.884;13.668;2023-04-19T06:06:23;97937.91;;;5.38;100.00
24962;BME280;12992;50.884;13.668;2023-04-19T06:08:48;97937.72;;;5.39;100.00
24962;BME280;12992;50.884;13.668;2023-04-19T06:11:14;97944.56;;;5.55;100.00
24962;BME280;12992;50.884;13.668;2023-04-19T06:13:40;97964.91;;;5.64;100.00
24962;BME280;12992;50.884;13.668;2023-04-19T06:16:06;97929.41;;;5.34;100.00
24962;BME280;12992;50.884;13.668;2023-04-19T06:18:32;97926.69;;;5.34;100.00
24962;BME280;12992;50.884;13.668;2023-04-19T06:20:57;97927.53;;;5.28;100.00
24962;BME280;12992;50.884;13.668;2023-04-19T06:23:22;97942.28;;;5.46;100.00
24962;BME280;12992;50.884;13.668;2023-04-19T06:25:49;97933.34;;;5.45;100.00
24962;BME280;12992;50.884;13.668;2023-04-19T06:28:15;97950.38;;;5.59;100.00
24962;BME280;12992;50.884;13.668;2023-04-19T06:30:40;97943.94;;;5.60;100.00
24962;BME280;12992;50.884;13.668;2023-04-19T06:33:05;97938.72;;;5.65;100.00
24962;BME280;12992;50.884;13.668;2023-04-19T06:35:31;97927.53;;;5.48;100.00
24962;BME280;12992;50.884;13.668;2023-04-19T06:37:57;97935.19;;;5.78;100.00
24962;BME280;12992;50.884;13.668;2023-04-19T06:40:23;97908.22;;;5.51;100.00
24962;BME280;12992;50.884;13.668;2023-04-19T06:42:48;97901.16;;;5.44;100.00
24962;BME280;12992;50.884;13.668;2023-04-19T06:45:14;97883.91;;;5.31;100.00
24962;BME280;12992;50.884;13.668;2023-04-19T06:47:40;97868.31;;;5.20;100.00
24962;BME280;12992;50.884;13.668;2023-04-19T06:50:06;97892.19;;;5.56;100.00
24962;BME280;12992;50.884;13.668;2023-04-19T06:52:31;97897.19;;;5.59;100.00
24962;BME280;12992;50.884;13.668;2023-04-19T06:54:56;97908.56;;;5.88;100.00
24962;BME280;12992;50.884;13.668;2023-04-19T06:57:22;97934.06;;;6.32;100.00
24962;BME280;12992;50.884;13.668;2023-04-19T06:59:47;97949.28;;;6.71;100.00
24962;BME280;12992;50.884;13.668;2023-04-19T07:02:12;97889.56;;;6.21;100.00
24962;BME280;12992;50.884;13.668;2023-04-19T07:04:38;97908.66;;;6.33;100.00
24962;BME280;12992;50.884;13.668;2023-04-19T07:07:03;97920.59;;;6.63;100.00
24962;BME280;12992;50.884;13.668;2023-04-19T07:09:28;97919.78;;;6.63;100.00
24962;BME280;12992;50.884;13.668;2023-04-19T07:11:54;97930.03;;;6.92;100.00
24962;BME280;12992;50.884;13.668;2023-04-19T07:14:19;97927.97;;;7.19;100.00
24962;BME280;12992;50.884;13.668;2023-04-19T07:16:45;97916.97;;;7.39;100.00
24962;BME280;12992;50.884;13.668;2023-04-19T07:19:11;97897.84;;;7.09;100.00
24962;BME280;12992;50.884;13.668;2023-04-19T07:21:37;97893.19;;;7.16;100.00
24962;BME280;12992;50.884;13.668;2023-04-19T07:24:06;97884.44;;;7.14;100.00
24962;BME280;12992;50.884;13.668;2023-04-19T07:26:33;97892.25;;;7.29;100.00
24962;BME280;12992;50.884;13.668;2023-04-19T07:29:00;97838.88;;;6.79;100.00
24962;BME280;12992;50.884;13.668;2023-04-19T07:31:26;97859.78;;;6.97;100.00
24962;BME280;12992;50.884;13.668;2023-04-19T07:33:52;97823.34;;;6.37;100.00
24962;BME280;12992;50.884;13.668;2023-04-19T07:36:18;97859.56;;;6.67;100.00
24962;BME280;12992;50.884;13.668;2023-04-19T07:38:43;97855.56;;;6.76;100.00
24962;BME280;12992;50.884;13.668;2023-04-19T07:41:08;97840.16;;;6.77;100.00
24962;BME280;12992;50.884;13.668;2023-04-19T07:43:34;97846.69;;;6.94;100.00
24962;BME280;12992;50.884;13.668;2023-04-19T07:46:00;97831.31;;;6.88;100.00
24962;BME280;12992;50.884;13.668;2023-04-19T07:48:25;97834.97;;;7.00;100.00
24962;BME280;12992;50.884;13.668;2023-04-19T07:50:51;97844.09;;;7.06;100.00
24962;BME280;12992;50.884;13.668;2023-04-19T07:53:16;97858.25;;;7.33;100.00
24962;BME280;12992;50.884;13.668;2023-04-19T07:55:42;97865.91;;;7.43;100.00
24962;BME280;12992;50.884;13.668;2023-04-19T07:58:07;97859.44;;;7.62;100.00
24962;BME280;12992;50.884;13.668;2023-04-19T08:00:33;97855.41;;;7.89;100.00
24962;BME280;12992;50.884;13.668;2023-04-19T08:03:02;97830.16;;;7.52;100.00
24962;BME280;12992;50.884;13.668;2023-04-19T08:05:28;97830.44;;;7.44;100.00
24962;BME280;12992;50.884;13.668;2023-04-19T08:07:54;97859.41;;;7.87;100.00
24962;BME280;12992;50.884;13.668;2023-04-19T08:10:19;97828.22;;;7.78;95.92
24962;BME280;12992;50.884;13.668;2023-04-19T08:12:45;97832.34;;;7.99;91.74
24962;BME280;12992;50.884;13.668;2023-04-19T08:15:10;97888.75;;;8.63;98.52
24962;BME280;12992;50.884;13.668;2023-04-19T08:17:36;97910.72;;;9.33;95.43
24962;BME280;12992;50.884;13.668;2023-04-19T08:20:01;97909.84;;;9.63;96.31
24962;BME280;12992;50.884;13.668;2023-04-19T08:22:26;97905.91;;;9.71;97.63
24962;BME280;12992;50.884;13.668;2023-04-19T08:24:52;97867.38;;;9.39;92.37
24962;BME280;12992;50.884;13.668;2023-04-19T08:27:18;97852.91;;;9.03;94.13
24962;BME280;12992;50.884;13.668;2023-04-19T08:29:43;97842.50;;;9.12;91.37
24962;BME280;12992;50.884;13.668;2023-04-19T08:32:10;97867.97;;;9.41;94.08
24962;BME280;12992;50.884;13.668;2023-04-19T08:34:37;97829.53;;;9.25;88.38
24962;BME280;12992;50.884;13.668;2023-04-19T08:37:03;97842.75;;;9.22;99.35
24962;BME280;12992;50.884;13.668;2023-04-19T08:39:31;97917.16;;;10.21;100.00
24962;BME280;12992;50.884;13.668;2023-04-19T08:42:03;97913.28;;;11.26;85.00
24962;BME280;12992;50.884;13.668;2023-04-19T08:44:30;97906.50;;;12.12;75.42
24962;BME280;12992;50.884;13.668;2023-04-19T08:46:58;97930.19;;;12.67;78.53
24962;BME280;12992;50.884;13.668;2023-04-19T08:49:23;97930.44;;;14.01;69.62
24962;BME280;12992;50.884;13.668;2023-04-19T08:51:49;97944.66;;;14.40;71.41
24962;BME280;12992;50.884;13.668;2023-04-19T08:54:15;97934.97;;;15.63;65.53
24962;BME280;12992;50.884;13.668;2023-04-19T08:56:41;97888.03;;;15.79;60.67
24962;BME280;12992;50.884;13.668;2023-04-19T08:59:06;97887.44;;;15.52;63.93
24962;BME280;12992;50.884;13.668;2023-04-19T09:01:31;97910.25;;;16.13;64.31
24962;BME280;12992;50.884;13.668;2023-04-19T09:03:57;97856.47;;;15.82;58.74
24962;BME280;12992;50.884;13.668;2023-04-19T09:06:22;97881.13;;;16.12;63.54
24962;BME280;12992;50.884;13.668;2023-04-19T09:08:47;97888.50;;;17.07;60.98
24962;BME280;12992;50.884;13.668;2023-04-19T09:11:13;97815.75;;;16.09;60.89
24962;BME280;12992;50.884;13.668;2023-04-19T09:13:38;97805.38;;;15.71;60.38
24962;BME280;12992;50.884;13.668;2023-04-19T09:16:22;97749.94;;;15.18;58.66
24962;BME280;12992;50.884;13.668;2023-04-19T09:18:54;97805.19;;;14.43;67.34
24962;BME280;12992;50.884;13.668;2023-04-19T09:21:29;97807.56;;;14.97;62.52
24962;BME280;12992;50.884;13.668;2023-04-19T09:23:56;97751.13;;;14.18;63.17
24962;BME280;12992;50.884;13.668;2023-04-19T09:26:21;97739.31;;;13.18;68.58
24962;BME280;12992;50.884;13.668;2023-04-19T09:29:01;97733.41;;;13.26;70.13
24962;BME280;12992;50.884;13.668;2023-04-19T09:31:28;97828.88;;;14.75;68.67
24962;BME280;12992;50.884;13.668;2023-04-19T09:33:54;97698.84;;;11.37;77.49
24962;BME280;12992;50.884;13.668;2023-04-19T09:36:30;97659.69;;;10.87;75.33
24962;BME280;12992;50.884;13.668;2023-04-19T09:38:56;97769.16;;;12.12;79.40
24962;BME280;12992;50.884;13.668;2023-04-19T09:41:22;97677.69;;;11.05;76.74
24962;BME280;12992;50.884;13.668;2023-04-19T09:43:48;97731.97;;;11.45;79.76
24962;BME280;12992;50.884;13.668;2023-04-19T09:46:31;97787.44;;;12.33;80.15
24962;BME280;12992;50.884;13.668;2023-04-19T09:49:16;97671.34;;;10.83;79.55
24962;BME280;12992;50.884;13.668;2023-04-19T09:51:55;97801.78;;;12.99;80.27
24962;BME280;12992;50.884;13.668;2023-04-19T09:54:22;97752.28;;;12.69;71.99
24962;BME280;12992;50.884;13.668;2023-04-19T09:56:48;97745.53;;;12.01;77.71
24962;BME280;12992;50.884;13.668;2023-04-19T09:59:14;97795.34;;;13.16;78.58
24962;BME280;12992;50.884;13.668;2023-04-19T10:01:55;97736.81;;;12.80;71.66
24962;BME280;12992;50.884;13.668;2023-04-19T10:04:21;97731.56;;;12.73;75.47
24962;BME280;12992;50.884;13.668;2023-04-19T10:06:50;97668.16;;;11.46;71.94
24962;BME280;12992;50.884;13.668;2023-04-19T10:09:22;97717.03;;;11.70;80.28
24962;BME280;12992;50.884;13.668;2023-04-19T10:11:49;97748.28;;;12.50;75.24
24962;BME280;12992;50.884;13.668;2023-04-19T10:14:15;97685.28;;;12.07;72.90
24962;BME280;12992;50.884;13.668;2023-04-19T10:16:41;97669.50;;;11.44;75.96
24962;BME280;12992;50.884;13.668;2023-04-19T10:19:08;97659.00;;;11.14;77.86
24962;BME280;12992;50.884;13.668;2023-04-19T10:21:35;97701.84;;;11.57;80.34
24962;BME280;12992;50.884;13.668;2023-04-19T10:24:01;97670.34;;;11.66;77.80
24962;BME280;12992;50.884;13.668;2023-04-19T10:26:26;97738.19;;;12.50;76.51
24962;BME280;12992;50.884;13.668;2023-04-19T10:28:55;97679.47;;;11.77;75.05
24962;BME280;12992;50.884;13.668;2023-04-19T10:31:21;97618.28;;;10.52;75.26
24962;BME280;12992;50.884;13.668;2023-04-19T10:33:49;97611.66;;;10.31;79.52
24962;BME280;12992;50.884;13.668;2023-04-19T10:36:19;97657.91;;;10.42;86.81
24962;BME280;12992;50.884;13.668;2023-04-19T10:38:46;97670.81;;;10.86;84.43
24962;BME280;12992;50.884;13.668;2023-04-19T10:41:13;97612.44;;;10.14;81.94
24962;BME280;12992;50.884;13.668;2023-04-19T10:43:46;97613.06;;;9.88;85.65
24962;BME280;12992;50.884;13.668;2023-04-19T10:46:34;97630.56;;;9.92;91.39
24962;BME280;12992;50.884;13.668;2023-04-19T10:49:03;97628.19;;;9.67;90.08
24962;BME280;12992;50.884;13.668;2023-04-19T10:51:38;97602.25;;;9.36;91.47
24962;BME280;12992;50.884;13.668;2023-04-19T10:54:07;97604.03;;;9.42;90.44
24962;BME280;12992;50.884;13.668;2023-04-19T11:04:04;97557.22;;;9.00;85.68
24962;BME280;12992;50.884;13.668;2023-04-19T11:06:30;97578.88;;;8.83;90.22
24962;BME280;12992;50.884;13.668;2023-04-19T11:08:56;97630.50;;;9.47;93.31
24962;BME280;12992;50.884;13.668;2023-04-19T11:11:22;97703.59;;;11.07;84.23
24962;BME280;12992;50.884;13.668;2023-04-19T11:13:49;97602.13;;;10.45;77.84
24962;BME280;12992;50.884;13.668;2023-04-19T11:16:15;97617.63;;;10.61;75.83
24962;BME280;12992;50.884;13.668;2023-04-19T11:18:40;97618.09;;;10.75;73.61
24962;BME280;12992;50.884;13.668;2023-04-19T11:21:05;97706.16;;;12.45;75.16
24962;BME280;12992;50.884;13.668;2023-04-19T11:23:31;97649.88;;;12.12;71.42
24962;BME280;12992;50.884;13.668;2023-04-19T11:25:56;97682.81;;;12.97;69.73
24962;BME280;12992;50.884;13.668;2023-04-19T11:28:21;97683.47;;;13.51;67.23
24962;BME280;12992;50.884;13.668;2023-04-19T11:30:48;97691.25;;;14.83;64.29
24962;BME280;12992;50.884;13.668;2023-04-19T11:33:13;97621.59;;;13.40;66.66
24962;BME280;12992;50.884;13.668;2023-04-19T11:35:39;97551.69;;;11.47;72.26
24962;BME280;12992;50.884;13.668;2023-04-19T11:38:05;97536.84;;;10.16;77.05
24962;BME280;12992;50.884;13.668;2023-04-19T11:40:31;97528.84;;;9.48;78.76
24962;BME280;12992;50.884;13.668;2023-04-19T11:43:01;97556.19;;;9.86;82.61
24962;BME280;12992;50.884;13.668;2023-04-19T11:45:27;97604.97;;;10.72;74.18
24962;BME280;12992;50.884;13.668;2023-04-19T11:47:54;97597.31;;;11.07;71.83
24962;BME280;12992;50.884;13.668;2023-04-19T11:50:39;97642.84;;;12.22;68.14
24962;BME280;12992;50.884;13.668;2023-04-19T11:53:22;97658.88;;;13.56;64.22
24962;BME280;12992;50.884;13.668;2023-04-19T11:55:52;97568.91;;;12.65;63.16
24962;BME280;12992;50.884;13.668;2023-04-19T11:58:25;97558.97;;;11.85;67.15
24962;BME280;12992;50.884;13.668;2023-04-19T12:00:53;97536.31;;;11.35;69.56
24962;BME280;12992;50.884;13.668;2023-04-19T12:03:21;97494.31;;;10.27;69.36
24962;BME280;12992;50.884;13.668;2023-04-19T12:05:58;97501.22;;;9.84;77.20
24962;BME280;12992;50.884;13.668;2023-04-19T12:08:52;97512.75;;;9.29;79.45
24962;BME280;12992;50.884;13.668;2023-04-19T12:11:25;97516.28;;;9.01;81.07
24962;BME280;12992;50.884;13.668;2023-04-19T12:14:13;97523.16;;;8.80;84.01
24962;BME280;12992;50.884;13.668;2023-04-19T12:16:38;97529.66;;;8.79;85.80
24962;BME280;12992;50.884;13.668;2023-04-19T12:19:15;97536.78;;;9.09;86.71
24962;BME280;12992;50.884;13.668;2023-04-19T12:21:42;97533.09;;;9.15;82.22
24962;BME280;12992;50.884;13.668;2023-04-19T12:24:07;97528.41;;;8.99;84.37
24962;BME280;12992;50.884;13.668;2023-04-19T12:26:34;97516.53;;;8.88;86.14
24962;BME280;12992;50.884;13.668;2023-04-19T12:29:00;97539.88;;;9.01;90.34
24962;BME280;12992;50.884;13.668;2023-04-19T12:31:26;97494.28;;;8.51;88.17
24962;BME280;12992;50.884;13.668;2023-04-19T12:33:52;97528.84;;;8.79;88.74
24962;BME280;12992;50.884;13.668;2023-04-19T12:36:17;97514.78;;;8.70;85.57
24962;BME280;12992;50.884;13.668;2023-04-19T12:38:43;97544.25;;;9.02;88.82
24962;BME280;12992;50.884;13.668;2023-04-19T12:41:08;97528.09;;;8.95;85.46
24962;BME280;12992;50.884;13.668;2023-04-19T12:43:33;97534.31;;;9.07;82.75
24962;BME280;12992;50.884;13.668;2023-04-19T12:45:59;97546.44;;;9.28;84.91
24962;BME280;12992;50.884;13.668;2023-04-19T12:48:25;97542.06;;;9.56;81.53
24962;BME280;12992;50.884;13.668;2023-04-19T12:50:51;97498.84;;;9.14;79.88
24962;BME280;12992;50.884;13.668;2023-04-19T12:53:17;97519.63;;;9.20;82.46
24962;BME280;12992;50.884;13.668;2023-04-19T12:55:42;97533.22;;;9.49;80.13
24962;BME280;12992;50.884;13.668;2023-04-19T12:58:12;97521.66;;;9.42;81.80